Time;durP1;ratioP1;P1;durP2;ratioP2;P2;SDS_P1;SDS_P2;PMS_P1;PMS_P2;Temp;Humidity;BMP_temperature;BMP_pressure;BME280_temperature;BME280_humidity;BME280_pressure;Samples;Min_cycle;Max_cycle;Signal;HPM_P1;HPM_P2
2022/12/31 00:01:35;;;;;;;3.00;1.90;;;;;;;10.82;98.41;97842.06;4997364;28;20046;-83
2022/12/31 00:04:00;;;;;;;2.55;2.28;;;;;;;10.84;98.37;97834.78;5004964;28;20033;-83
2022/12/31 00:06:31;;;;;;;5.63;2.47;;;;;;;10.87;98.12;97839.63;4997798;28;20437;-82
2022/12/31 00:08:59;;;;;;;3.47;2.05;;;;;;;10.87;97.94;97826.50;4999521;28;20037;-82
2022/12/31 00:11:27;;;;;;;4.25;2.08;;;;;;;10.86;98.13;97837.22;5001108;28;20500;-83
2022/12/31 00:13:53;;;;;;;2.72;1.80;;;;;;;10.90;98.05;97839.19;4999221;28;20037;-83
2022/12/31 00:16:24;;;;;;;2.58;2.13;;;;;;;10.90;97.97;97828.69;4998348;28;20049;-83
2022/12/31 00:18:53;;;;;;;;;;;;;;;10.88;98.19;97828.09;4998771;28;20035;-82
2022/12/31 00:21:20;;;;;;;2.30;1.60;;;;;;;10.91;98.04;97840.00;4998885;28;19936;-82
2022/12/31 00:23:47;;;;;;;1.75;1.60;;;;;;;10.93;98.04;97838.78;4996721;28;20045;-83
2022/12/31 00:26:20;;;;;;;2.83;1.58;;;;;;;10.97;98.07;97844.41;4999925;28;20042;-83
2022/12/31 00:28:47;;;;;;;2.95;1.80;;;;;;;10.97;97.87;97841.78;4997480;28;20049;-83
2022/12/31 00:31:15;;;;;;;3.08;1.70;;;;;;;10.95;97.72;97842.00;5000057;28;20481;-83
2022/12/31 00:33:42;;;;;;;2.28;1.65;;;;;;;10.96;97.43;97845.44;5000338;28;20033;-82
2022/12/31 00:36:18;;;;;;;2.25;1.65;;;;;;;10.98;97.45;97841.59;4998512;28;20493;-83
2022/12/31 00:38:49;;;;;;;3.13;1.80;;;;;;;10.95;97.09;97847.25;5000884;28;20034;-83
2022/12/31 00:41:17;;;;;;;1.95;1.75;;;;;;;10.95;97.06;97844.63;5001009;28;20034;-83
2022/12/31 00:43:43;;;;;;;3.22;1.90;;;;;;;11.00;96.85;97854.50;5002139;28;20081;-82
2022/12/31 00:46:10;;;;;;;2.38;1.63;;;;;;;11.01;96.70;97855.31;4998383;28;20105;-82
2022/12/31 00:48:37;;;;;;;1.95;1.58;;;;;;;10.99;96.49;97843.22;5000709;28;20094;-82
2022/12/31 00:51:05;;;;;;;1.83;1.50;;;;;;;10.99;96.29;97851.06;5000090;28;20027;-82
2022/12/31 00:53:31;;;;;;;1.42;1.33;;;;;;;11.02;96.46;97862.16;5000226;28;20042;-82
2022/12/31 00:56:02;;;;;;;1.60;1.50;;;;;;;11.03;96.20;97864.56;5000534;28;20059;-82
2022/12/31 00:58:27;;;;;;;;;;;;;;;11.03;95.70;97863.78;5001382;28;20044;-82
2022/12/31 01:00:53;;;;;;;1.55;1.40;;;;;;;11.08;95.87;97871.81;4999096;28;19917;-82
2022/12/31 01:03:18;;;;;;;1.35;1.25;;;;;;;11.08;95.42;97871.81;4999897;28;20562;-82
2022/12/31 01:05:44;;;;;;;1.58;1.38;;;;;;;11.13;95.22;97888.56;4999150;28;20573;-83
2022/12/31 01:08:09;;;;;;;1.63;1.35;;;;;;;11.13;95.03;97891.19;5000530;28;20093;-83
2022/12/31 01:13:18;;;;;;;1.48;1.10;;;;;;;11.07;95.01;97901.72;5001815;28;20041;-82
2022/12/31 01:15:44;;;;;;;1.60;1.20;;;;;;;11.15;94.85;97910.16;5003256;28;20466;-82
2022/12/31 01:18:10;;;;;;;1.52;1.02;;;;;;;11.14;95.04;97916.41;5002836;28;20125;-82
2022/12/31 01:20:39;;;;;;;1.25;1.00;;;;;;;11.18;94.75;97915.00;5002898;28;20069;-82
2022/12/31 01:23:06;;;;;;;1.27;1.13;;;;;;;11.24;94.51;97913.38;5001547;28;20049;-83
2022/12/31 01:25:37;;;;;;;1.30;1.20;;;;;;;11.28;94.32;97909.31;5003337;28;20087;-82
2022/12/31 01:28:05;;;;;;;1.27;1.17;;;;;;;11.33;94.03;97912.09;5002148;28;20120;-83
2022/12/31 01:30:31;;;;;;;1.30;1.20;;;;;;;11.34;94.03;97913.75;5002200;28;20100;-82
2022/12/31 01:32:57;;;;;;;1.20;1.10;;;;;;;11.35;93.98;97906.66;5001316;28;20502;-83
2022/12/31 01:35:23;;;;;;;2.50;1.10;;;;;;;11.34;94.00;97905.06;5002348;28;20460;-82
2022/12/31 01:37:48;;;;;;;1.20;1.10;;;;;;;11.37;93.89;97921.19;5001978;28;20041;-82
2022/12/31 01:40:14;;;;;;;1.52;1.10;;;;;;;11.38;93.82;97930.66;5000652;28;20425;-82
2022/12/31 01:42:39;;;;;;;2.15;1.13;;;;;;;11.42;94.01;97926.63;5001694;28;20034;-83
2022/12/31 01:45:11;;;;;;;1.23;1.08;;;;;;;11.44;93.73;97935.09;4995388;28;20595;-82
2022/12/31 01:47:46;;;;;;;2.63;1.42;;;;;;;11.45;93.58;97941.16;4999062;28;20113;-82
2022/12/31 01:50:20;;;;;;;1.10;0.98;;;;;;;11.45;93.72;97939.31;5001609;28;20034;-83
2022/12/31 01:52:52;;;;;;;1.90;1.08;;;;;;;11.44;93.54;97945.59;4999785;28;20052;-83
2022/12/31 01:55:25;;;;;;;2.25;1.20;;;;;;;11.50;93.62;97943.97;4998498;28;20038;-83
2022/12/31 01:57:57;;;;;;;0.98;0.90;;;;;;;11.51;93.57;97950.81;4998593;28;20490;-83
2022/12/31 02:00:23;;;;;;;2.05;1.02;;;;;;;11.47;94.28;97944.38;4997442;28;20049;-82
2022/12/31 02:02:49;;;;;;;1.10;1.00;;;;;;;11.45;95.02;97941.16;4997245;28;20053;-82
2022/12/31 02:05:45;;;;;;;0.75;0.75;;;;;;;11.44;96.30;97947.41;5000429;28;20038;-82
2022/12/31 02:08:11;;;;;;;1.65;1.00;;;;;;;11.45;96.37;97941.94;5003333;28;20037;-83
2022/12/31 02:10:40;;;;;;;1.42;0.80;;;;;;;11.48;97.15;97936.28;5002356;28;20042;-83
2022/12/31 02:13:06;;;;;;;4.03;1.10;;;;;;;11.53;97.71;97938.31;5001508;28;20034;-82
2022/12/31 02:15:59;;;;;;;0.77;0.77;;;;;;;11.58;97.81;97942.94;5002268;28;20037;-83
2022/12/31 02:18:55;;;;;;;0.70;0.70;;;;;;;11.56;97.94;97953.63;5002387;28;20033;-83
2022/12/31 02:21:32;;;;;;;1.33;0.85;;;;;;;11.61;97.89;97950.38;5002463;28;20069;-82
2022/12/31 02:24:35;;;;;;;0.70;0.70;;;;;;;11.62;98.27;97951.97;5001120;28;20061;-83
2022/12/31 02:27:52;;;;;;;0.65;0.60;;;;;;;11.65;98.52;97962.09;5001503;28;20045;-83
2022/12/31 02:30:23;;;;;;;0.70;0.70;;;;;;;11.65;98.85;97948.94;4990391;28;20049;-82
2022/12/31 02:33:01;;;;;;;3.70;1.63;;;;;;;11.62;99.98;97944.09;4999968;28;20101;-82
2022/12/31 02:36:13;;;;;;;2.05;1.70;;;;;;;11.60;100.00;97939.06;5000842;28;20049;-83
2022/12/31 02:38:43;;;;;;;2.20;1.60;;;;;;;11.59;100.00;97947.97;5025687;28;20057;-82
2022/12/31 02:41:48;;;;;;;3.30;2.40;;;;;;;11.61;100.00;97940.66;5001678;28;20045;-82
2022/12/31 02:44:00;;;;;;;;;;;;;;;11.63;100.00;97948.34;4999733;28;20118;-83
2022/12/31 02:47:06;;;;;;;4.10;1.50;;;;;;;11.61;100.00;97955.63;4995746;28;20004;-83
2022/12/31 02:50:19;;;;;;;2.22;1.45;;;;;;;11.64;100.00;97958.66;5000386;28;20402;-83
2022/12/31 02:53:35;;;;;;;2.72;1.52;;;;;;;11.65;100.00;97956.84;4997612;28;20102;-82
2022/12/31 02:56:21;;;;;;;1.27;1.02;;;;;;;11.63;100.00;97953.59;5019677;28;20693;-82
2022/12/31 03:02:14;;;;;;;1.38;1.10;;;;;;;11.59;100.00;97965.56;4995432;28;20048;-83
2022/12/31 03:04:48;;;;;;;1.53;1.20;;;;;;;11.60;100.00;97969.78;5006102;28;20040;-83
2022/12/31 03:07:21;;;;;;;1.05;0.95;;;;;;;11.60;100.00;97973.22;5001585;28;20292;-82
2022/12/31 03:09:48;;;;;;;1.05;0.95;;;;;;;11.62;100.00;97968.53;4997644;28;20497;-83
2022/12/31 03:15:00;;;;;;;1.02;0.90;;;;;;;11.59;100.00;97978.69;5000514;28;20083;-82
2022/12/31 03:17:26;;;;;;;1.17;1.08;;;;;;;11.62;100.00;97986.13;5001196;28;20117;-83
2022/12/31 03:22:41;;;;;;;1.17;1.00;;;;;;;11.64;100.00;97971.78;4999350;28;20121;-82
2022/12/31 03:28:03;;;;;;;2.45;1.30;;;;;;;11.64;100.00;97966.53;4998809;28;20088;-83
2022/12/31 03:30:30;;;;;;;1.38;1.00;;;;;;;11.69;100.00;97968.50;5014947;28;20049;-82
2022/12/31 03:32:57;;;;;;;2.10;0.80;;;;;;;11.71;100.00;97969.94;5000172;28;20101;-82
2022/12/31 03:35:25;;;;;;;0.90;0.90;;;;;;;11.72;100.00;97973.38;4999310;28;20038;-83
2022/12/31 03:37:52;;;;;;;1.05;0.95;;;;;;;11.75;100.00;97970.31;4997611;28;20548;-83
2022/12/31 03:40:21;;;;;;;1.30;1.08;;;;;;;11.78;100.00;97967.28;4997596;28;20546;-83
2022/12/31 03:42:46;;;;;;;1.75;1.02;;;;;;;11.75;100.00;97971.13;4997605;28;20093;-83
2022/12/31 03:45:13;;;;;;;2.13;0.70;;;;;;;11.81;100.00;97961.59;4995267;28;20037;-83
2022/12/31 03:47:39;;;;;;;1.92;1.20;;;;;;;11.75;100.00;97965.03;4996884;28;20034;-83
2022/12/31 03:50:07;;;;;;;1.00;1.00;;;;;;;11.77;100.00;97960.41;4996794;28;20050;-83
2022/12/31 03:52:33;;;;;;;0.80;0.80;;;;;;;11.77;100.00;97955.16;4996274;28;20231;-83
2022/12/31 03:55:00;;;;;;;1.90;0.77;;;;;;;11.79;100.00;97959.16;4997643;28;20065;-82
2022/12/31 03:57:26;;;;;;;1.63;1.02;;;;;;;11.81;100.00;97969.50;4996690;28;20046;-83
2022/12/31 03:59:52;;;;;;;0.80;0.80;;;;;;;11.85;100.00;97978.56;4996260;28;20040;-83
2022/12/31 04:02:17;;;;;;;0.88;0.80;;;;;;;11.87;100.00;97971.28;4998242;28;20129;-83
2022/12/31 04:04:42;;;;;;;1.40;0.70;;;;;;;11.89;100.00;97968.47;5000450;28;20042;-82
2022/12/31 04:07:08;;;;;;;0.80;0.80;;;;;;;11.88;100.00;97972.91;5001518;28;20104;-83
2022/12/31 04:09:34;;;;;;;1.02;0.70;;;;;;;11.92;100.00;97974.09;4999189;28;20037;-82
2022/12/31 04:11:59;;;;;;;0.75;0.75;;;;;;;11.94;99.78;97974.69;4999045;28;20041;-82
2022/12/31 04:14:25;;;;;;;1.00;0.90;;;;;;;11.96;99.74;97974.47;5004548;28;20429;-83
2022/12/31 04:16:50;;;;;;;1.02;0.80;;;;;;;11.98;99.22;97977.69;5003863;28;20120;-82
2022/12/31 04:19:16;;;;;;;1.40;0.73;;;;;;;11.93;99.04;97986.22;5003630;28;20100;-83
2022/12/31 04:21:41;;;;;;;2.85;0.90;;;;;;;11.97;98.60;97987.41;5002975;28;20040;-82
2022/12/31 04:24:07;;;;;;;0.90;0.90;;;;;;;11.97;98.39;97990.03;5004291;28;20050;-83
2022/12/31 04:26:34;;;;;;;0.93;0.85;;;;;;;11.97;97.62;97987.41;5003090;28;20389;-83
2022/12/31 04:28:59;;;;;;;0.70;0.70;;;;;;;11.97;97.15;97971.63;5002966;28;20454;-83
2022/12/31 04:31:26;;;;;;;0.70;0.70;;;;;;;11.99;96.92;97982.72;5001337;28;20121;-82
2022/12/31 04:33:51;;;;;;;0.90;0.90;;;;;;;11.96;96.65;97983.16;5001260;28;20042;-83
2022/12/31 04:36:17;;;;;;;1.25;0.70;;;;;;;11.97;96.21;97981.34;5000830;28;20069;-83
2022/12/31 04:38:42;;;;;;;0.82;0.60;;;;;;;11.97;95.89;97982.16;5001243;28;20117;-82
2022/12/31 04:41:17;;;;;;;0.90;0.80;;;;;;;12.02;95.48;97990.22;5000800;28;20069;-83
2022/12/31 04:43:48;;;;;;;2.45;0.70;;;;;;;12.04;95.20;97985.53;5008665;28;20030;-83
2022/12/31 04:46:22;;;;;;;0.93;0.85;;;;;;;12.07;94.94;97994.03;4997933;28;20040;-83
2022/12/31 04:48:47;;;;;;;0.60;0.60;;;;;;;12.06;94.54;97998.50;5000648;28;20052;-82
2022/12/31 04:51:13;;;;;;;0.70;0.52;;;;;;;12.12;94.20;97994.22;5000346;28;20033;-83
2022/12/31 04:53:40;;;;;;;1.40;0.70;;;;;;;12.13;93.83;97986.09;5002059;28;20054;-82
2022/12/31 04:56:06;;;;;;;1.50;0.70;;;;;;;12.15;93.77;97993.78;4999181;28;20109;-82
2022/12/31 04:58:33;;;;;;;0.68;0.68;;;;;;;12.20;93.66;97992.13;4998156;28;20046;-83
2022/12/31 05:00:59;;;;;;;0.73;0.70;;;;;;;12.16;93.11;98001.44;4998504;28;20136;-83
2022/12/31 05:03:25;;;;;;;1.33;0.85;;;;;;;12.23;92.85;97998.78;5004574;28;20061;-83
2022/12/31 05:05:52;;;;;;;0.80;0.80;;;;;;;12.22;92.74;98005.84;5004699;28;20031;-83
2022/12/31 05:08:18;;;;;;;1.08;0.77;;;;;;;12.22;92.52;97999.78;5004367;28;20119;-82
2022/12/31 05:10:47;;;;;;;0.93;0.70;;;;;;;12.18;92.23;98003.88;5003189;28;20038;-82
2022/12/31 05:13:14;;;;;;;1.65;1.38;;;;;;;12.13;92.05;97993.19;5004490;28;20573;-83
2022/12/31 05:15:41;;;;;;;0.70;0.70;;;;;;;12.12;92.11;97995.03;5002476;28;20038;-82
2022/12/31 05:18:07;;;;;;;1.17;0.70;;;;;;;12.10;92.09;97999.66;5002844;28;20069;-82
2022/12/31 05:20:33;;;;;;;1.00;0.90;;;;;;;12.13;92.03;98012.41;5000951;28;20065;-82
2022/12/31 05:22:59;;;;;;;1.08;0.80;;;;;;;12.14;91.77;98005.31;5002324;28;20045;-83
2022/12/31 05:25:25;;;;;;;1.67;0.80;;;;;;;12.19;91.50;98008.13;5001085;28;20030;-83
2022/12/31 05:27:50;;;;;;;0.75;0.60;;;;;;;12.24;91.27;98003.03;5001635;28;20516;-83
2022/12/31 05:30:19;;;;;;;1.15;0.75;;;;;;;12.25;91.22;98013.34;5000579;28;20046;-83
2022/12/31 05:32:45;;;;;;;0.70;0.70;;;;;;;12.25;90.94;98010.72;5000252;28;20030;-83
2022/12/31 05:35:12;;;;;;;2.05;0.82;;;;;;;12.31;90.68;98015.13;5001454;28;20030;-83
2022/12/31 05:37:38;;;;;;;1.30;0.75;;;;;;;12.36;90.41;98017.13;4998979;28;20038;-83
2022/12/31 05:40:04;;;;;;;1.92;0.80;;;;;;;12.33;90.10;98012.25;5000202;28;20110;-83
2022/12/31 05:42:30;;;;;;;1.48;1.00;;;;;;;12.41;90.00;98019.88;4998855;28;20501;-83
2022/12/31 05:44:56;;;;;;;1.98;0.80;;;;;;;12.45;89.74;98010.56;4997926;28;20097;-83
2022/12/31 05:47:22;;;;;;;0.75;0.73;;;;;;;12.47;89.50;98021.66;4999104;28;20508;-83
2022/12/31 05:49:48;;;;;;;0.82;0.70;;;;;;;12.45;89.17;98010.56;5001805;28;20127;-83
2022/12/31 05:52:13;;;;;;;0.80;0.80;;;;;;;12.48;89.22;98015.41;4997785;28;20109;-83
2022/12/31 05:54:39;;;;;;;2.22;0.98;;;;;;;12.51;89.11;98017.59;4997787;28;20038;-83
2022/12/31 05:57:05;;;;;;;0.90;0.68;;;;;;;12.56;88.81;98038.00;4997807;28;20096;-83
2022/12/31 05:59:31;;;;;;;0.90;0.88;;;;;;;12.59;88.56;98037.56;5002860;28;20038;-83
2022/12/31 06:01:57;;;;;;;1.05;0.88;;;;;;;12.60;88.29;98023.41;5003167;28;20379;-83
2022/12/31 06:04:23;;;;;;;1.10;0.80;;;;;;;12.60;88.34;98028.69;5004187;28;20030;-83
2022/12/31 06:06:49;;;;;;;0.80;0.80;;;;;;;12.64;88.28;98037.75;5002383;28;20383;-83
2022/12/31 06:09:16;;;;;;;1.23;0.80;;;;;;;12.64;88.04;98044.84;5003303;28;20033;-83
2022/12/31 06:11:42;;;;;;;1.73;1.05;;;;;;;12.71;87.77;98056.09;5002459;28;20038;-83
2022/12/31 06:14:08;;;;;;;1.50;1.00;;;;;;;12.71;87.57;98048.22;5001611;28;20478;-83
2022/12/31 06:16:34;;;;;;;0.70;0.70;;;;;;;12.72;87.75;98045.38;5001062;28;20117;-83
2022/12/31 06:19:00;;;;;;;1.23;0.90;;;;;;;12.65;87.79;98033.28;5002201;28;20433;-83
2022/12/31 06:21:26;;;;;;;1.35;0.90;;;;;;;12.59;87.94;98033.16;5000767;28;20038;-84
2022/12/31 06:23:51;;;;;;;0.95;0.80;;;;;;;12.57;87.75;98037.00;5000464;28;20038;-84
2022/12/31 06:26:17;;;;;;;2.13;0.90;;;;;;;12.57;87.92;98040.41;4998988;28;20046;-84
2022/12/31 06:28:42;;;;;;;0.70;0.70;;;;;;;12.57;87.75;98042.25;5000822;28;20072;-83
2022/12/31 06:31:12;;;;;;;1.25;1.00;;;;;;;12.55;87.78;98036.41;5002142;28;20432;-83
2022/12/31 06:33:37;;;;;;;1.52;1.10;;;;;;;12.54;87.75;98045.31;5005134;28;20034;-83
2022/12/31 06:36:07;;;;;;;0.80;0.80;;;;;;;12.53;87.83;98039.25;4998835;28;20038;-83
2022/12/31 06:38:37;;;;;;;0.90;0.80;;;;;;;12.49;88.05;98042.53;4998303;28;20042;-83
2022/12/31 06:41:09;;;;;;;0.80;0.80;;;;;;;12.52;88.32;98047.34;4998200;28;20486;-83
2022/12/31 06:43:39;;;;;;;2.25;0.93;;;;;;;12.50;87.89;98044.13;4997480;28;20046;-84
2022/12/31 06:46:09;;;;;;;3.47;1.00;;;;;;;12.55;87.80;98055.63;4994420;28;20034;-84
2022/12/31 06:48:37;;;;;;;2.25;1.00;;;;;;;12.55;87.87;98049.56;4998001;28;20026;-83
2022/12/31 06:51:09;;;;;;;2.50;1.08;;;;;;;12.56;88.05;98051.97;4996640;28;20041;-83
2022/12/31 06:53:35;;;;;;;2.15;0.80;;;;;;;12.58;87.86;98052.56;4997073;28;20045;-83
2022/12/31 06:56:20;;;;;;;1.73;0.90;;;;;;;12.64;87.67;98060.63;4996397;28;20038;-84
2022/12/31 06:58:47;;;;;;;2.10;0.90;;;;;;;12.65;87.78;98062.22;5001470;28;20144;-83
2022/12/31 07:01:50;;;;;;;1.70;0.88;;;;;;;12.63;87.55;98059.00;5001910;28;20132;-83
2022/12/31 07:04:34;;;;;;;1.10;1.00;;;;;;;12.65;87.50;98057.78;5001670;28;20063;-83
2022/12/31 07:07:30;;;;;;;0.85;0.85;;;;;;;12.68;87.64;98064.44;5001053;28;20129;-84
2022/12/31 07:10:04;;;;;;;1.30;0.93;;;;;;;12.69;87.55;98063.41;5000906;28;20038;-83
2022/12/31 07:13:16;;;;;;;0.80;0.80;;;;;;;12.73;87.45;98054.91;4991275;28;20045;-83
2022/12/31 07:16:20;;;;;;;1.65;0.82;;;;;;;12.72;87.37;98058.56;4997494;28;20038;-83
2022/12/31 07:19:26;;;;;;;1.23;0.80;;;;;;;12.74;87.54;98071.50;4999932;28;20033;-83
2022/12/31 07:21:55;;;;;;;1.17;0.75;;;;;;;12.74;87.15;98076.75;4993426;28;20026;-83
2022/12/31 07:24:21;;;;;;;0.93;0.90;;;;;;;12.71;87.40;98069.25;4993560;28;20081;-83
2022/12/31 07:27:37;;;;;;;1.08;1.00;;;;;;;12.77;87.30;98077.09;4997142;28;20157;-84
2022/12/31 07:30:11;;;;;;;2.42;1.10;;;;;;;12.76;87.15;98079.97;4994388;28;20035;-80
2022/12/31 07:33:14;;;;;;;1.10;0.90;;;;;;;12.78;87.07;98083.22;4995337;28;20777;-83
2022/12/31 07:36:43;;;;;;;1.00;0.90;;;;;;;12.76;87.09;98098.38;4996796;28;20421;-83
2022/12/31 07:39:15;;;;;;;1.10;1.00;;;;;;;12.76;87.03;98096.56;5005035;28;20041;-82
2022/12/31 07:42:03;;;;;;;0.80;0.80;;;;;;;12.79;86.83;98095.34;5003278;28;20077;-83
2022/12/31 07:44:59;;;;;;;1.30;1.20;;;;;;;12.80;86.74;98097.75;4999362;28;20215;-83
2022/12/31 07:47:27;;;;;;;1.30;0.82;;;;;;;12.82;86.78;98094.91;4996640;28;20069;-82
2022/12/31 07:49:55;;;;;;;1.42;0.88;;;;;;;12.82;86.70;98087.00;4999247;28;20050;-83
2022/12/31 07:52:22;;;;;;;0.93;0.93;;;;;;;12.82;86.69;98089.63;4996028;28;20532;-82
2022/12/31 07:54:47;;;;;;;2.97;1.20;;;;;;;12.89;86.94;98095.66;4999469;28;20048;-83
2022/12/31 07:57:18;;;;;;;2.83;1.23;;;;;;;12.92;86.50;98107.59;5003512;28;20981;-82
2022/12/31 08:00:10;;;;;;;2.35;1.00;;;;;;;12.96;86.64;98104.31;5002547;28;20121;-82
2022/12/31 08:03:08;;;;;;;2.08;1.02;;;;;;;13.01;86.43;98107.09;5001594;28;20046;-83
2022/12/31 08:06:07;;;;;;;0.98;0.93;;;;;;;13.07;86.36;98111.53;4994941;28;20034;-83
2022/12/31 08:09:00;;;;;;;2.45;1.30;;;;;;;13.12;86.18;98116.94;4998699;28;20030;-82
2022/12/31 08:11:55;;;;;;;2.22;1.10;;;;;;;13.21;86.16;98121.97;5003417;28;20093;-82
2022/12/31 08:14:21;;;;;;;1.95;1.00;;;;;;;13.29;85.80;98133.03;4996302;28;20058;-82
2022/12/31 08:16:47;;;;;;;1.67;1.00;;;;;;;13.45;85.13;98129.06;5001404;28;20069;-82
2022/12/31 08:19:31;;;;;;;1.08;1.00;;;;;;;13.67;84.62;98139.97;5001779;28;20096;-82
2022/12/31 08:22:41;;;;;;;1.02;0.90;;;;;;;13.83;83.97;98149.16;5001264;28;20026;-82
2022/12/31 08:25:22;;;;;;;1.10;1.00;;;;;;;13.95;83.13;98152.69;5000910;28;20085;-82
2022/12/31 08:27:54;;;;;;;1.15;1.02;;;;;;;13.96;82.60;98149.00;4996979;28;20073;-82
2022/12/31 08:30:26;;;;;;;2.08;1.30;;;;;;;13.89;82.53;98143.00;4999041;28;20065;-82
2022/12/31 08:33:13;;;;;;;2.08;1.30;;;;;;;13.75;83.06;98141.53;4998819;28;20393;-82
2022/12/31 08:36:22;;;;;;;1.40;1.30;;;;;;;13.80;83.16;98144.34;4999996;28;20450;-83
2022/12/31 08:39:20;;;;;;;2.28;1.08;;;;;;;13.75;83.49;98144.19;4998319;28;20498;-83
2022/12/31 08:41:50;;;;;;;1.10;1.00;;;;;;;13.73;83.57;98149.66;4998006;28;20062;-83
2022/12/31 08:44:55;;;;;;;1.97;1.00;;;;;;;13.70;83.75;98144.84;4998276;28;20026;-83
2022/12/31 08:47:40;;;;;;;2.35;1.02;;;;;;;13.69;83.81;98143.22;4996144;28;20049;-82
2022/12/31 08:50:15;;;;;;;1.40;1.30;;;;;;;13.71;83.83;98150.91;4998180;28;20954;-82
2022/12/31 08:52:41;;;;;;;1.40;1.17;;;;;;;13.71;83.96;98150.91;4997106;28;20065;-82
2022/12/31 08:55:11;;;;;;;2.00;1.20;;;;;;;13.73;84.11;98156.75;5002087;28;20034;-82
2022/12/31 08:58:36;;;;;;;1.47;1.13;;;;;;;13.76;84.23;98154.50;5002720;28;20038;-82
2022/12/31 09:01:06;;;;;;;1.55;1.17;;;;;;;13.80;83.89;98153.06;5001792;28;20041;-83
2022/12/31 09:04:17;;;;;;;1.10;1.10;;;;;;;13.83;83.61;98157.06;5002010;28;20120;-83
2022/12/31 09:06:58;;;;;;;1.73;1.10;;;;;;;13.94;83.83;98166.88;4996241;28;20034;-83
2022/12/31 09:09:54;;;;;;;3.95;1.23;;;;;;;13.97;83.38;98171.72;4999177;28;20045;-82
2022/12/31 09:12:44;;;;;;;1.73;1.25;;;;;;;14.03;83.31;98164.75;4998024;28;20060;-83
2022/12/31 09:15:45;;;;;;;1.77;1.40;;;;;;;14.06;83.40;98167.78;4995489;28;20035;-83
2022/12/31 09:18:11;;;;;;;1.60;1.25;;;;;;;14.07;82.86;98165.94;5009183;28;20434;-83
2022/12/31 09:20:38;;;;;;;0.85;0.82;;;;;;;14.07;82.76;98179.94;4998583;28;20062;-82
2022/12/31 09:23:05;;;;;;;2.10;1.23;;;;;;;14.13;82.70;98186.97;4995292;28;20042;-83
2022/12/31 09:25:31;;;;;;;1.63;1.08;;;;;;;14.17;82.43;98182.88;4992554;28;20045;-83
2022/12/31 09:28:38;;;;;;;2.00;1.30;;;;;;;14.27;82.00;98186.81;4996994;28;20034;-82
2022/12/31 09:31:20;;;;;;;3.72;1.20;;;;;;;14.38;81.73;98193.97;5007591;28;20041;-82
2022/12/31 09:34:15;;;;;;;2.88;1.10;;;;;;;14.45;81.16;98186.78;5001240;28;20109;-82
2022/12/31 09:36:49;;;;;;;1.60;1.23;;;;;;;14.60;80.59;98189.88;4998949;28;20042;-83
2022/12/31 09:39:36;;;;;;;1.40;1.10;;;;;;;14.69;80.21;98200.94;4998955;28;20034;-83
2022/12/31 09:42:24;;;;;;;1.33;1.20;;;;;;;14.79;80.12;98197.75;4997769;28;20034;-83
2022/12/31 09:45:27;;;;;;;2.13;1.20;;;;;;;14.72;79.86;98206.56;4999052;28;20039;-83
2022/12/31 09:48:33;;;;;;;2.63;1.45;;;;;;;14.69;80.17;98199.13;5033089;28;20080;-83
2022/12/31 09:51:29;;;;;;;2.13;1.40;;;;;;;14.73;80.02;98202.91;4997227;28;20077;-83
2022/12/31 09:54:18;;;;;;;3.17;1.05;;;;;;;14.80;79.82;98204.66;5001424;28;20109;-83
2022/12/31 09:57:35;;;;;;;1.58;1.25;;;;;;;14.76;79.61;98203.50;4999904;28;20045;-83
2022/12/31 10:00:19;;;;;;;1.23;1.08;;;;;;;14.78;79.60;98210.16;5000145;28;20038;-83
2022/12/31 10:02:58;;;;;;;2.13;1.40;;;;;;;14.76;79.73;98211.44;4999038;28;20509;-83
2022/12/31 10:05:58;;;;;;;3.55;1.73;;;;;;;14.80;78.99;98213.38;4999820;28;20054;-82
2022/12/31 10:08:39;;;;;;;2.15;1.60;;;;;;;14.83;79.05;98206.84;5000028;28;20125;-82
2022/12/31 10:11:23;;;;;;;3.55;1.98;;;;;;;14.78;79.37;98199.59;4999934;28;20042;-83
2022/12/31 10:14:41;;;;;;;2.95;1.75;;;;;;;14.77;79.47;98203.28;4999819;28;20036;-83
2022/12/31 10:18:02;;;;;;;1.20;1.10;;;;;;;14.79;79.26;98205.69;4995066;28;20088;-82
2022/12/31 10:20:36;;;;;;;;;;;;;;;14.76;79.29;98200.88;5000113;28;20616;-83
2022/12/31 10:23:37;;;;;;;1.52;0.90;;;;;;;14.75;79.60;98196.59;4999202;28;20369;-83
2022/12/31 10:26:42;;;;;;;1.10;1.00;;;;;;;14.73;79.09;98186.25;4998698;28;20066;-83
2022/12/31 10:29:47;;;;;;;1.38;1.00;;;;;;;14.78;79.47;98193.53;4998214;28;20081;-83
2022/12/31 10:32:38;;;;;;;2.25;1.00;;;;;;;14.84;79.02;98187.34;4998639;28;20034;-83
2022/12/31 10:35:26;;;;;;;1.55;1.00;;;;;;;14.88;78.53;98189.31;4998524;28;20042;-83
2022/12/31 10:38:25;;;;;;;1.17;1.00;;;;;;;14.93;78.68;98188.63;4998507;28;20042;-83
2022/12/31 10:41:41;;;;;;;1.13;1.02;;;;;;;14.93;78.02;98180.69;4998055;28;20038;-82
2022/12/31 10:44:52;;;;;;;1.20;0.90;;;;;;;14.99;78.18;98188.56;4997991;28;20061;-83
2022/12/31 10:47:42;;;;;;;0.75;0.75;;;;;;;15.03;77.85;98191.53;4998177;28;20041;-83
2022/12/31 10:50:29;;;;;;;1.10;1.00;;;;;;;15.19;77.37;98185.59;4996931;28;20026;-83
2022/12/31 10:53:38;;;;;;;1.35;1.05;;;;;;;15.31;76.82;98195.41;4999110;28;20088;-83
2022/12/31 10:57:06;;;;;;;1.95;1.50;;;;;;;15.30;76.57;98201.72;4999377;28;20995;-83
2022/12/31 11:00:00;;;;;;;2.20;1.50;;;;;;;15.39;76.63;98206.44;5024523;28;20045;-83
2022/12/31 11:03:16;;;;;;;1.98;1.00;;;;;;;15.48;76.46;98202.44;5007283;28;20049;-83
2022/12/31 11:06:19;;;;;;;1.35;1.15;;;;;;;15.51;76.04;98198.50;4999549;28;20029;-83
2022/12/31 11:09:50;;;;;;;2.22;1.27;;;;;;;15.58;76.08;98199.19;4998525;28;20045;-83
2022/12/31 11:12:21;;;;;;;;;;;;;;;15.55;75.39;98194.38;5008298;28;20061;-83
2022/12/31 11:15:00;;;;;;;2.92;1.77;;;;;;;15.58;75.19;98183.34;5000130;28;20516;-83
2022/12/31 11:17:35;;;;;;;1.88;1.10;;;;;;;15.72;75.12;98184.78;4995564;28;20139;-83
2022/12/31 11:20:29;;;;;;;1.35;1.00;;;;;;;15.77;75.15;98176.13;4998410;28;20089;-83
2022/12/31 11:23:14;;;;;;;2.70;1.00;;;;;;;15.84;74.71;98176.03;4996486;28;20041;-82
2022/12/31 11:26:19;;;;;;;1.80;0.98;;;;;;;15.77;74.33;98179.59;4997524;28;20147;-82
2022/12/31 11:28:56;;;;;;;2.40;1.52;;;;;;;15.77;74.88;98171.66;4996999;28;20034;-82
2022/12/31 11:31:49;;;;;;;1.15;1.00;;;;;;;15.85;74.41;98175.00;4997160;28;20042;-82
2022/12/31 11:35:03;;;;;;;1.20;1.10;;;;;;;15.89;74.61;98165.53;4997631;28;20034;-82
2022/12/31 11:37:40;;;;;;;1.50;1.00;;;;;;;15.95;73.82;98167.25;4998339;28;20651;-83
2022/12/31 11:40:53;;;;;;;1.10;1.00;;;;;;;16.03;74.21;98170.38;4997287;28;20038;-82
2022/12/31 11:43:48;;;;;;;3.00;1.20;;;;;;;16.05;73.74;98175.41;4996320;28;20054;-83
2022/12/31 11:46:28;;;;;;;3.83;1.90;;;;;;;16.09;73.53;98173.94;4993037;28;20121;-83
2022/12/31 11:49:36;;;;;;;1.50;1.40;;;;;;;15.97;73.69;98181.06;4996809;28;20052;-83
2022/12/31 11:52:56;;;;;;;1.58;1.40;;;;;;;15.91;73.98;98187.28;4999664;28;20049;-83
2022/12/31 11:56:00;;;;;;;1.58;1.10;;;;;;;15.92;74.22;98179.13;5000058;28;20462;-82
2022/12/31 11:58:28;;;;;;;1.40;1.30;;;;;;;15.91;74.48;98176.72;4995849;28;20042;-82
2022/12/31 12:01:12;;;;;;;1.52;1.20;;;;;;;15.96;74.28;98184.75;4998678;28;20596;-82
2022/12/31 12:03:42;;;;;;;1.75;1.20;;;;;;;16.04;73.72;98177.25;4997996;28;20034;-82
2022/12/31 12:06:15;;;;;;;4.80;2.17;;;;;;;16.11;74.15;98171.84;4999260;28;20363;-82
2022/12/31 12:08:43;;;;;;;1.48;1.30;;;;;;;16.27;73.19;98187.00;4999058;28;20142;-82
2022/12/31 12:11:20;;;;;;;1.67;1.40;;;;;;;16.32;73.08;98173.88;4998500;28;20117;-82
2022/12/31 12:13:47;;;;;;;1.98;1.42;;;;;;;16.44;72.68;98176.50;4999599;28;20066;-82
2022/12/31 12:16:13;;;;;;;1.58;1.17;;;;;;;16.50;72.40;98175.53;4997806;28;20550;-82
2022/12/31 12:19:06;;;;;;;1.23;0.90;;;;;;;16.57;71.79;98175.41;4998756;28;20041;-82
2022/12/31 12:21:33;;;;;;;1.60;1.20;;;;;;;16.58;72.07;98167.22;4997202;28;20034;-82
2022/12/31 12:24:17;;;;;;;2.25;1.30;;;;;;;16.64;71.98;98169.97;4998904;28;20045;-82
2022/12/31 12:26:44;;;;;;;1.17;1.08;;;;;;;16.69;71.76;98168.22;4998738;28;20050;-82
2022/12/31 12:29:28;;;;;;;2.42;1.30;;;;;;;16.68;70.96;98163.97;4995854;28;20062;-82
2022/12/31 12:31:58;;;;;;;1.50;1.25;;;;;;;16.71;71.53;98165.34;4997678;28;20030;-82
2022/12/31 12:34:31;;;;;;;3.88;1.27;;;;;;;16.71;71.63;98158.22;4998706;28;20084;-82
2022/12/31 12:36:57;;;;;;;2.33;1.40;;;;;;;16.87;71.60;98164.59;5001332;28;20034;-82
2022/12/31 12:39:30;;;;;;;1.38;1.13;;;;;;;16.97;71.41;98163.94;5000606;28;20624;-82